createdAt,value
2019-04-23T06:51:08.773Z,30.10
2019-04-23T06:53:29.065Z,30.00
2019-04-23T06:56:03.846Z,29.10
2019-04-23T07:03:43.819Z,29.10
2019-04-23T07:09:07.859Z,28.80
2019-04-23T07:11:25.003Z,28.10
2019-04-23T07:16:31.467Z,27.80
2019-04-23T07:19:04.616Z,27.40
2019-04-23T07:21:46.477Z,27.60
2019-04-23T07:24:05.663Z,27.70
2019-04-23T07:26:39.084Z,28.30
2019-04-23T07:31:40.953Z,27.70
2019-04-23T07:39:17.525Z,27.80
2019-04-23T07:42:03.495Z,26.60
2019-04-23T07:47:11.718Z,27.60
2019-04-23T07:49:43.379Z,28.00
2019-04-23T07:52:20.130Z,27.10
2019-04-23T07:54:45.685Z,26.40
2019-04-23T07:57:30.539Z,27.30
2019-04-23T07:59:51.110Z,27.60
2019-04-23T08:02:20.390Z,27.00
2019-04-23T08:05:04.805Z,26.60
2019-04-23T08:07:22.575Z,26.30
2019-04-23T08:09:58.073Z,26.70
2019-04-23T08:12:32.036Z,26.60
2019-04-23T08:17:27.838Z,26.90
2019-04-23T08:22:40.758Z,27.10
2019-04-23T08:25:17.844Z,27.50
2019-04-23T08:27:56.004Z,27.10
2019-04-23T08:30:29.376Z,26.50
2019-04-23T08:32:57.330Z,26.10
2019-04-23T08:35:35.871Z,26.20
2019-04-23T08:40:43.241Z,26.60
2019-04-23T08:43:29.300Z,25.90
2019-04-23T08:46:07.895Z,25.70
2019-04-23T08:48:41.328Z,25.80
2019-04-23T08:51:23.213Z,26.40
2019-04-23T08:53:57.018Z,25.40
2019-04-23T08:56:15.066Z,25.50
2019-04-23T08:59:07.166Z,24.20
2019-04-23T09:01:16.947Z,24.90
2019-04-23T09:03:46.319Z,25.20
2019-04-23T09:09:24.273Z,25.00
2019-04-23T09:14:20.627Z,24.90
2019-04-23T09:17:04.612Z,24.60
2019-04-23T09:19:56.314Z,25.10
2019-04-23T09:22:25.185Z,25.10
2019-04-23T09:35:20.976Z,25.40
2019-04-23T09:38:10.152Z,25.80
2019-04-23T09:40:54.919Z,25.60
2019-04-23T09:43:12.104Z,25.80
2019-04-23T09:46:06.140Z,25.20
2019-04-23T09:48:35.241Z,25.70
2019-04-23T09:51:02.507Z,26.10
2019-04-23T09:53:35.934Z,25.90
2019-04-23T09:56:01.166Z,25.60
2019-04-23T09:58:34.480Z,26.10
2019-04-23T10:01:26.634Z,24.10
2019-04-23T10:03:41.226Z,24.00
2019-04-23T10:06:14.517Z,23.30
2019-04-23T10:08:47.454Z,23.10
2019-04-23T10:11:19.639Z,23.30
2019-04-23T10:13:55.184Z,22.50
2019-04-23T10:16:30.275Z,23.00
2019-04-23T10:18:57.503Z,22.90
2019-04-23T10:21:29.284Z,23.00
2019-04-23T10:24:01.360Z,23.40
2019-04-23T10:26:30.447Z,23.60
2019-04-23T10:29:02.118Z,22.70
2019-04-23T10:31:31.536Z,22.80
2019-04-23T10:34:06.225Z,23.80
2019-04-23T10:36:37.907Z,23.80
2019-04-23T10:39:17.096Z,23.80
2019-04-23T10:41:45.402Z,24.40
2019-04-23T10:44:17.517Z,23.70
2019-04-23T10:47:15.179Z,23.40
2019-04-23T10:49:53.247Z,24.10
2019-04-23T10:54:52.347Z,23.80
2019-04-23T10:57:21.235Z,24.20
2019-04-23T10:59:47.497Z,23.60
2019-04-23T11:02:40.393Z,24.60
2019-04-23T11:07:33.923Z,24.30
2019-04-23T11:22:51.884Z,24.20
2019-04-23T11:25:37.910Z,24.40
2019-04-23T11:28:03.075Z,24.40
2019-04-23T11:30:36.490Z,23.80
2019-04-23T11:33:10.215Z,24.20
2019-04-23T11:35:50.553Z,24.90
2019-04-23T11:38:43.715Z,24.20
2019-04-23T11:41:00.556Z,23.90
2019-04-23T11:43:30.287Z,23.80
2019-04-23T11:46:10.465Z,24.00
2019-04-23T11:48:46.514Z,24.70
2019-04-23T11:53:35.646Z,24.80
2019-04-23T11:56:08.295Z,24.60
2019-04-23T11:58:35.722Z,25.30
2019-04-23T12:01:38.681Z,25.70
2019-04-23T12:04:12.758Z,25.90
2019-04-23T12:06:54.376Z,24.90
2019-04-23T12:09:34.976Z,25.00
2019-04-23T12:17:22.607Z,26.30
2019-04-23T12:35:15.711Z,25.90
2019-04-23T12:37:46.498Z,25.90
2019-04-23T12:53:24.346Z,25.60
2019-04-23T12:58:22.212Z,25.60
2019-04-23T13:00:45.998Z,26.20
2019-04-23T13:05:51.408Z,26.10
2019-04-23T13:08:44.334Z,25.90
2019-04-23T13:11:17.624Z,26.20
2019-04-23T13:13:56.378Z,26.90
2019-04-23T13:16:25.331Z,26.40
2019-04-23T13:18:49.602Z,26.90
2019-04-23T13:21:45.079Z,26.40
2019-04-23T13:24:11.375Z,26.90
2019-04-23T13:26:44.667Z,26.00
2019-04-23T13:29:18.555Z,26.00
2019-04-23T13:31:54.370Z,26.90
2019-04-23T13:34:23.044Z,26.20
2019-04-23T13:36:51.490Z,26.30
2019-04-23T13:39:24.590Z,26.60
2019-04-23T13:41:54.056Z,26.20
2019-04-23T13:44:33.959Z,26.00
2019-04-23T13:47:10.571Z,25.60
2019-04-23T13:49:46.937Z,26.00
2019-04-23T13:52:28.315Z,26.70
2019-04-23T13:54:59.931Z,26.60
2019-04-23T13:59:56.295Z,26.80
2019-04-23T14:02:40.490Z,27.00
2019-04-23T14:05:12.971Z,25.80
2019-04-23T14:07:48.409Z,26.30
2019-04-23T14:10:29.837Z,26.30
2019-04-23T14:13:15.140Z,26.20
2019-04-23T14:15:40.448Z,26.20
2019-04-23T14:18:26.993Z,26.00
2019-04-23T14:20:38.382Z,25.50
2019-04-23T14:23:24.402Z,26.00
2019-04-23T14:28:37.398Z,26.10
2019-04-23T14:31:07.937Z,25.60
2019-04-23T14:33:47.097Z,25.70
2019-04-23T14:38:43.989Z,26.20
2019-04-23T14:43:58.158Z,25.80
2019-04-23T14:49:03.951Z,26.60
2019-04-23T14:54:12.941Z,25.90
2019-04-23T14:56:44.898Z,26.40
2019-04-23T14:59:10.537Z,26.30
2019-04-23T15:01:51.383Z,26.50
2019-04-23T15:04:32.057Z,26.60
2019-04-23T15:07:13.173Z,26.10
2019-04-23T15:09:53.233Z,26.50
2019-04-23T15:12:30.442Z,26.70
2019-04-23T15:15:02.849Z,26.90
2019-04-23T15:17:27.270Z,27.20
2019-04-23T15:20:15.011Z,27.10
2019-04-23T15:23:04.383Z,27.30
2019-04-23T15:25:31.704Z,27.40
2019-04-23T15:28:06.819Z,26.70
2019-04-23T15:30:23.046Z,26.70
2019-04-23T15:33:10.124Z,26.90
2019-04-23T15:35:37.164Z,27.00
2019-04-23T15:40:45.671Z,27.60
2019-04-23T15:43:19.054Z,28.10
2019-04-23T15:49:07.256Z,27.50
2019-04-23T15:56:40.964Z,27.00
2019-04-23T15:59:21.096Z,27.50
2019-04-23T16:03:51.343Z,27.20
2019-04-23T16:06:25.383Z,27.10
2019-04-23T16:09:39.867Z,27.50
2019-04-23T16:12:00.046Z,27.20
2019-04-23T16:17:16.844Z,27.50
2019-04-23T16:20:24.476Z,27.60
2019-04-23T16:22:36.908Z,27.30
2019-04-23T16:25:12.952Z,27.60
2019-04-23T16:27:46.825Z,27.30
2019-04-23T16:38:21.349Z,27.50
2019-04-23T16:40:37.593Z,27.60
2019-04-23T16:46:03.076Z,27.90
2019-04-23T16:51:18.015Z,28.10
2019-04-23T16:56:11.514Z,28.20
2019-04-23T16:58:44.574Z,28.70
2019-04-23T17:04:03.731Z,28.30
2019-04-23T17:06:36.168Z,28.50
2019-04-23T17:09:09.470Z,28.70
2019-04-23T17:11:42.582Z,28.50
2019-04-23T17:16:44.385Z,28.80
2019-04-23T17:19:40.144Z,29.00
2019-04-23T17:21:59.941Z,29.40
2019-04-23T17:24:23.084Z,29.50
2019-04-23T17:29:38.512Z,29.40
2019-04-23T17:32:19.770Z,29.40
2019-04-23T17:37:32.190Z,29.80
2019-04-23T17:40:16.174Z,29.90
2019-04-23T17:42:55.502Z,29.70
2019-04-23T17:47:52.365Z,29.90
2019-04-23T17:50:28.753Z,30.00
2019-04-23T17:53:03.339Z,30.20
2019-04-23T17:55:33.840Z,30.50
2019-04-23T17:58:16.364Z,30.80
2019-04-23T18:00:51.615Z,30.90
2019-04-23T18:03:19.844Z,30.90
2019-04-23T18:06:03.606Z,31.00
2019-04-23T18:11:05.867Z,31.50
2019-04-23T18:13:28.016Z,31.70
2019-04-23T18:18:40.278Z,31.80
2019-04-23T18:21:33.987Z,32.10
2019-04-23T18:26:56.860Z,32.40
2019-04-23T18:29:31.558Z,32.30
2019-04-23T18:32:16.573Z,32.70
2019-04-23T18:35:04.404Z,32.70
2019-04-23T18:37:16.680Z,32.90
2019-04-23T18:42:29.129Z,32.70
2019-04-23T18:47:38.679Z,32.80
2019-04-23T18:49:55.553Z,32.90
2019-04-23T18:52:33.082Z,32.80
2019-04-23T18:54:56.413Z,32.70
2019-04-23T18:57:37.041Z,32.70
2019-04-23T19:05:45.681Z,32.50
2019-04-23T19:08:20.934Z,32.40
2019-04-23T19:10:57.423Z,32.50
2019-04-23T19:13:42.166Z,32.90
2019-04-23T19:15:52.533Z,32.90
2019-04-23T19:18:40.390Z,32.90
2019-04-23T19:21:09.150Z,33.00
2019-04-23T19:23:46.925Z,32.90
2019-04-23T19:26:07.986Z,33.20
2019-04-23T19:28:50.653Z,33.20
2019-04-23T19:31:16.532Z,33.40
2019-04-23T19:33:55.015Z,33.60
2019-04-23T19:36:25.941Z,34.00
2019-04-23T19:38:58.087Z,33.90
2019-04-23T19:41:32.049Z,34.20
2019-04-23T19:43:57.691Z,34.50
2019-04-23T19:46:43.452Z,34.80
2019-04-23T19:49:06.498Z,35.10
2019-04-23T19:51:39.783Z,35.40
2019-04-23T19:56:45.174Z,35.60
2019-04-23T19:59:31.570Z,35.70
2019-04-23T20:01:47.212Z,35.70
2019-04-23T20:04:16.079Z,36.00
2019-04-23T20:09:41.801Z,36.30
2019-04-23T20:11:59.145Z,36.60
2019-04-23T20:14:43.664Z,36.90
2019-04-23T20:17:31.737Z,37.30
2019-04-23T20:19:46.474Z,37.70
2019-04-23T20:22:16.721Z,37.90
2019-04-23T20:25:05.477Z,38.40
2019-04-23T20:27:18.439Z,38.60
2019-04-23T20:33:19.186Z,39.00
2019-04-23T20:35:10.901Z,38.90
2019-04-23T20:38:18.720Z,39.00
2019-04-23T20:42:53.041Z,39.00
2019-04-23T20:45:27.549Z,39.10
2019-04-23T20:48:02.995Z,39.20
2019-04-23T20:50:34.824Z,39.10
2019-04-23T20:53:01.367Z,39.10
2019-04-23T20:56:02.165Z,39.10
2019-04-23T20:58:36.485Z,39.20
2019-04-23T21:01:09.552Z,39.40
2019-04-23T21:03:47.086Z,39.70
2019-04-23T21:06:07.138Z,39.90
2019-04-23T21:08:53.745Z,40.30
2019-04-23T21:10:58.382Z,40.70
2019-04-23T21:14:01.734Z,40.80
2019-04-23T21:18:43.849Z,41.00
2019-04-23T21:21:18.306Z,41.40
2019-04-23T21:23:51.112Z,41.50
2019-04-23T21:26:08.340Z,41.50
2019-04-23T21:31:21.031Z,41.50
2019-04-23T21:34:06.107Z,41.60
2019-04-23T21:39:23.063Z,41.60
2019-04-23T21:42:10.916Z,42.00
2019-04-23T21:44:40.713Z,41.70
2019-04-23T21:47:08.955Z,41.90
2019-04-23T21:49:57.858Z,42.10
2019-04-23T21:52:13.479Z,42.00
2019-04-23T21:57:15.836Z,42.20
2019-04-23T21:59:50.581Z,42.40
2019-04-23T22:02:21.732Z,42.30
2019-04-23T22:04:52.443Z,42.40
2019-04-23T22:07:26.784Z,42.50
2019-04-23T22:09:59.928Z,42.60
2019-04-23T22:12:34.611Z,42.70
2019-04-23T22:14:55.381Z,42.80
2019-04-23T22:17:35.207Z,42.60
2019-04-23T22:22:58.787Z,42.70
2019-04-23T22:25:37.345Z,42.90
2019-04-23T22:27:48.470Z,43.10
2019-04-23T22:30:22.788Z,43.40
2019-04-23T22:32:56.361Z,43.60
2019-04-23T22:35:22.012Z,43.90
2019-04-23T22:38:01.014Z,43.90
2019-04-23T22:40:18.563Z,44.30
2019-04-23T22:43:08.655Z,44.10
2019-04-23T22:45:27.512Z,44.40
2019-04-23T22:48:02.984Z,44.80
2019-04-23T22:50:38.899Z,45.00
2019-04-23T22:53:00.664Z,45.30
2019-04-23T22:55:33.553Z,45.30
2019-04-23T23:00:46.726Z,45.30
2019-04-23T23:08:36.195Z,45.70
2019-04-23T23:13:50.302Z,46.20
2019-04-23T23:18:59.456Z,46.70
2019-04-23T23:23:40.172Z,47.20
2019-04-23T23:28:41.044Z,47.30
2019-04-23T23:31:10.003Z,47.50
2019-04-23T23:36:12.159Z,47.80
2019-04-23T23:38:50.806Z,47.60
2019-04-23T23:43:54.646Z,47.80
2019-04-23T23:46:31.092Z,47.60
2019-04-23T23:48:49.850Z,47.70
2019-04-23T23:51:29.156Z,47.90
2019-04-23T23:53:58.704Z,48.10
2019-04-23T23:59:03.663Z,48.40
